African Piper — C6BO2 — position and weather

sailwx.info

Track history (hours):
 
Tides and Currents Weather Stations Pressure Air Temp Water Temp Dewpoint Dewpoint Depression Visibility Wind Speed Wind Dir Waves Ship Positions

African Piper

Last reported at 2017-Nov-19 23:58 UTC. Time now 2017-Nov-21 13:39 UTC.
Position N 57°42' E 007°36'.

Length 180 m; draft 6.1 m.

Type: Cargo ship. MMSI: 311000316.

Date/timePositionNaut miles runAvg speedWind from/ knotsBaromVisibWave heightAir tempDewpointWater temp
2017-Nov-19 23:58N 57°42' E 007°36'613.6
2017-Nov-19 23:29N 57°42' E 007°24'611.7
2017-Nov-19 23:00N 57°42' E 007°14'2 3.3
2017-Nov-19 22:30N 57°42' E 007°10'5 9.4
2017-Nov-19 21:59N 57°42' E 007°01'613.1
2017-Nov-19 21:30N 57°43' E 006°49'613.1
2017-Nov-19 21:00N 57°44' E 006°38'712.8
2017-Nov-19 20:30N 57°47' E 006°27'713.6
2017-Nov-19 19:59N 57°51' E 006°17'713.5
2017-Nov-19 19:30N 57°56' E 006°07'713.5
2017-Nov-19 19:00N 57°60' E 005°58'713.6
2017-Nov-19 18:30N 58°04' E 005°48'1813.2
2017-Nov-19 17:08N 58°16' E 005°22'313.2
2017-Nov-19 16:53N 58°18' E 005°18'813.5
2017-Nov-19 16:19N 58°24' E 005°08'413.6
2017-Nov-19 16:00N 58°27' E 005°02'713.7
2017-Nov-19 15:29N 58°32' E 004°53'713.7
2017-Nov-19 14:59N 58°37' E 004°43'714.1
2017-Nov-19 14:29N 58°42' E 004°34'20612.5
2017-Nov-18 21:55N 62°09' E 004°28'410.6
2017-Nov-18 21:30N 62°11' E 004°35'510.3
2017-Nov-18 21:00N 62°15' E 004°44'510.4
2017-Nov-18 20:30N 62°18' E 004°52'510.6
2017-Nov-18 20:00N 62°23' E 004°59'510.4
2017-Nov-18 19:30N 62°27' E 005°06'510.5
2017-Nov-18 19:00N 62°31' E 005°13'510.4
2017-Nov-18 18:30N 62°35' E 005°19'510.5
2017-Nov-18 18:00N 62°39' E 005°26'510.6
2017-Nov-18 17:30N 62°43' E 005°33'510.2
2017-Nov-18 17:00N 62°48' E 005°39'3 6.8
2017-Nov-18 16:30N 62°50' E 005°44'2 3.8
2017-Nov-18 16:00N 62°52' E 005°46'2 3.7
2017-Nov-18 15:30N 62°53' E 005°48'54 5.6
2017-Nov-18 05:52N 63°32' E 007°13'1 2.2
2017-Nov-18 05:30N 63°32' E 007°14'1 2.7
2017-Nov-18 04:59N 63°31' E 007°16'1 2.5
2017-Nov-18 04:30N 63°31' E 007°19'1 1.6
2017-Nov-18 04:00N 63°30' E 007°20'1 2.0
2017-Nov-18 03:30N 63°29' E 007°20'0 0.9
2017-Nov-18 02:59N 63°29' E 007°21'0 0.8
2017-Nov-18 02:30N 63°28' E 007°21'0 0.4
2017-Nov-18 02:00N 63°28' E 007°21'0 0.4
2017-Nov-18 01:30N 63°28' E 007°20'0 0.2
2017-Nov-18 01:00N 63°28' E 007°20'0 1.0
2017-Nov-18 00:30N 63°28' E 007°20'0 1.0
2017-Nov-18 00:00N 63°29' E 007°20'0 1.0
2017-Nov-17 23:30N 63°29' E 007°19'1 1.1
2017-Nov-17 23:00N 63°29' E 007°18'1 2.6
2017-Nov-17 22:30N 63°28' E 007°17'1 2.7
2017-Nov-17 22:00N 63°27' E 007°17'1 2.8
2017-Nov-17 21:30N 63°26' E 007°16'1 2.8
2017-Nov-17 21:00N 63°24' E 007°16'1 2.8
2017-Nov-17 20:30N 63°23' E 007°15'1 1.5
2017-Nov-17 20:00N 63°22' E 007°14'1 1.7
2017-Nov-17 19:30N 63°22' E 007°12'1 2.1
2017-Nov-17 19:00N 63°21' E 007°11'2 3.3
2017-Nov-17 18:30N 63°19' E 007°10'3 5.8
2017-Nov-17 18:00N 63°16' E 007°09'4 7.1
2017-Nov-17 17:30N 63°13' E 007°09'1 2.6
2017-Nov-17 17:00N 63°12' E 007°07'0 0.6
2017-Nov-17 16:29N 63°12' E 007°07'1 1.3
2017-Nov-17 16:00N 63°12' E 007°05'0 0.4
2017-Nov-17 15:30N 63°12' E 007°05'0 0.7
2017-Nov-17 15:00N 63°12' E 007°06'0 0.9
2017-Nov-17 14:30N 63°12' E 007°07'0 0.6
2017-Nov-17 14:00N 63°12' E 007°08'0 0.6
2017-Nov-17 13:30N 63°12' E 007°08'0 0.4
2017-Nov-17 13:00N 63°12' E 007°08'0 0.8
2017-Nov-17 12:30N 63°11' E 007°08'1 2.2
2017-Nov-17 12:00N 63°10' E 007°08'0 0.4
2017-Nov-17 11:30N 63°10' E 007°08'0 0.9
2017-Nov-17 11:00N 63°10' E 007°09'1 1.7
2017-Nov-17 10:30N 63°11' E 007°11'1 1.7
2017-Nov-17 10:00N 63°11' E 007°12'1 1.9
2017-Nov-17 09:30N 63°12' E 007°14'1 2.4
2017-Nov-17 09:00N 63°12' E 007°17'1 2.6
2017-Nov-17 08:30N 63°12' E 007°20'1 2.9
2017-Nov-17 08:00N 63°13' E 007°23'1 2.6
2017-Nov-17 07:30N 63°13' E 007°25'1 2.9
2017-Nov-17 07:00N 63°14' E 007°27'1 2.9
2017-Nov-17 06:30N 63°15' E 007°30'1 2.9
2017-Nov-17 06:00N 63°15' E 007°33'1 1.4
2017-Nov-17 05:30N 63°16' E 007°35'0 0.6
2017-Nov-17 05:00N 63°16' E 007°35'2 3.5
2017-Nov-17 04:30N 63°15' E 007°39'4 8.2
2017-Nov-17 04:00N 63°13' E 007°46'4 8.8
2017-Nov-17 03:30N 63°13' E 007°56'5 9.5
2017-Nov-17 03:00N 63°16' E 008°05'5 9.3
2017-Nov-17 02:30N 63°18' E 008°14'4 9.2
2017-Nov-17 02:00N 63°21' E 008°21'5 9.3
2017-Nov-17 01:30N 63°24' E 008°30'5 9.1
2017-Nov-17 01:00N 63°26' E 008°39'5 9.1
2017-Nov-17 00:30N 63°27' E 008°49'510.2
2017-Nov-17 00:00N 63°29' E 008°60'510.6
2017-Nov-16 23:30N 63°31' E 009°10'510.4
2017-Nov-16 23:00N 63°34' E 009°21'510.7
2017-Nov-16 22:29N 63°37' E 009°31'511.2
2017-Nov-16 22:00N 63°39' E 009°42'5 9.5
2017-Nov-16 21:30N 63°36' E 009°49'612.8
2017-Nov-16 21:00N 63°30' E 009°55'611.2
2017-Nov-16 20:30N 63°25' E 009°60'611.4
2017-Nov-16 20:00N 63°20' E 009°53'1 2.4
2017-Nov-16 19:30N 63°19' E 009°51'0 0.0
2017-Nov-16 19:00N 63°19' E 009°51'0 0.0
2017-Nov-16 18:28N 63°19' E 009°51'0 0.0
2017-Nov-16 17:58N 63°19' E 009°51'0 0.0
2017-Nov-16 17:28N 63°19' E 009°51'0 0.0
2017-Nov-16 16:58N 63°19' E 009°51'0 0.0
2017-Nov-16 16:28N 63°19' E 009°51'0 0.0
2017-Nov-16 15:58N 63°19' E 009°51'0 0.0
2017-Nov-16 15:28N 63°19' E 009°51'0 0.0
2017-Nov-16 14:58N 63°19' E 009°51'0 0.0
2017-Nov-16 14:28N 63°19' E 009°51'0 0.0
2017-Nov-16 13:58N 63°19' E 009°51'0 0.0
2017-Nov-16 13:28N 63°19' E 009°51'0 0.0
2017-Nov-16 12:58N 63°19' E 009°51'0 0.0
2017-Nov-16 12:28N 63°19' E 009°51'0 0.0
2017-Nov-16 11:58N 63°19' E 009°51'0 0.0
2017-Nov-16 11:28N 63°19' E 009°51'0 0.0
2017-Nov-16 10:58N 63°19' E 009°51'0 0.0
2017-Nov-16 10:28N 63°19' E 009°51'0 0.0
2017-Nov-16 09:58N 63°19' E 009°51'0 0.0
2017-Nov-16 09:28N 63°19' E 009°51'0 0.0
2017-Nov-16 08:58N 63°19' E 009°51'0 0.0
2017-Nov-16 08:28N 63°19' E 009°51'0 0.0
2017-Nov-16 07:58N 63°19' E 009°51'0 0.0
2017-Nov-16 07:28N 63°19' E 009°51'0 0.0
2017-Nov-16 06:58N 63°19' E 009°51'0 0.0
2017-Nov-16 06:28N 63°19' E 009°51'0 0.0
2017-Nov-16 05:58N 63°19' E 009°51'0 0.0
2017-Nov-16 05:28N 63°19' E 009°51'0 0.0
2017-Nov-16 04:58N 63°19' E 009°51'0 0.0
2017-Nov-16 04:28N 63°19' E 009°51'0 0.0
2017-Nov-16 03:58N 63°19' E 009°51'0 0.0
2017-Nov-16 03:28N 63°19' E 009°51'0 0.0
2017-Nov-16 02:58N 63°19' E 009°51'0 0.0
2017-Nov-16 02:28N 63°19' E 009°51'0 0.0
2017-Nov-16 01:58N 63°19' E 009°51'0 0.0
2017-Nov-16 01:28N 63°19' E 009°51'0 0.0
2017-Nov-16 00:58N 63°19' E 009°51'0 0.0
2017-Nov-16 00:28N 63°19' E 009°51'0 0.0
2017-Nov-15 23:58N 63°19' E 009°51'0 0.0
2017-Nov-15 23:28N 63°19' E 009°51'0 0.0
2017-Nov-15 22:58N 63°19' E 009°51'0 0.0
2017-Nov-15 22:28N 63°19' E 009°51'0 0.0
2017-Nov-15 21:58N 63°19' E 009°51'0 0.0
2017-Nov-15 21:28N 63°19' E 009°51'0 0.0
2017-Nov-15 20:58N 63°19' E 009°51'0 0.0
2017-Nov-15 20:28N 63°19' E 009°51'0 0.0
2017-Nov-15 19:58N 63°19' E 009°51'0 0.0
2017-Nov-15 19:28N 63°19' E 009°51'0 0.0
2017-Nov-15 18:58N 63°19' E 009°51'0 0.0
2017-Nov-15 18:28N 63°19' E 009°51'0 0.0
2017-Nov-15 17:58N 63°19' E 009°51'0 0.0
2017-Nov-15 17:28N 63°19' E 009°51'0 0.0
2017-Nov-15 16:58N 63°19' E 009°51'0 0.0
2017-Nov-15 16:28N 63°19' E 009°51'0 0.0
2017-Nov-15 15:58N 63°19' E 009°51'0 0.0
2017-Nov-15 15:28N 63°19' E 009°51'0 0.0
2017-Nov-15 14:58N 63°19' E 009°51'0 0.0
2017-Nov-15 14:28N 63°19' E 009°51'0 0.0
2017-Nov-15 13:58N 63°19' E 009°51'0 0.0
2017-Nov-15 13:28N 63°19' E 009°51'0 0.0
2017-Nov-15 12:58N 63°19' E 009°51'0 0.0
2017-Nov-15 12:28N 63°19' E 009°51'0 0.0
2017-Nov-15 11:58N 63°19' E 009°51'0 0.0
2017-Nov-15 11:28N 63°19' E 009°51'0 0.0
2017-Nov-15 10:58N 63°19' E 009°51'0 0.0
2017-Nov-15 10:28N 63°19' E 009°51'0 0.0
2017-Nov-15 09:58N 63°19' E 009°51'0 0.0
2017-Nov-15 09:28N 63°19' E 009°51'0 0.0
2017-Nov-15 08:58N 63°19' E 009°51'0 0.0
2017-Nov-15 08:28N 63°19' E 009°51'0 0.0
2017-Nov-15 07:58N 63°19' E 009°51'0 0.0
2017-Nov-15 07:28N 63°19' E 009°51'0 0.0
2017-Nov-15 06:58N 63°19' E 009°51'0 0.0
2017-Nov-15 06:28N 63°19' E 009°51'0 0.0
2017-Nov-15 05:58N 63°19' E 009°51'0 0.0
2017-Nov-15 05:28N 63°19' E 009°51'0 0.0
2017-Nov-15 04:58N 63°19' E 009°51'0 0.0
2017-Nov-15 04:28N 63°19' E 009°51'0 0.0
2017-Nov-15 03:58N 63°19' E 009°51'0 0.0
2017-Nov-15 03:28N 63°19' E 009°51'0 0.0
2017-Nov-15 02:58N 63°19' E 009°51'0 0.0
2017-Nov-15 02:28N 63°19' E 009°51'0 0.0
2017-Nov-15 01:58N 63°19' E 009°51'0 0.0
2017-Nov-15 01:28N 63°19' E 009°51'0 0.0
2017-Nov-15 00:58N 63°19' E 009°51'0 0.0
2017-Nov-15 00:28N 63°19' E 009°51'0 0.0
2017-Nov-14 23:58N 63°19' E 009°51'0 0.0
2017-Nov-14 23:28N 63°19' E 009°51'0 0.0
2017-Nov-14 22:58N 63°19' E 009°51'0 0.0
2017-Nov-14 22:28N 63°19' E 009°51'0 0.0
2017-Nov-14 21:58N 63°19' E 009°51'0 0.0
2017-Nov-14 21:28N 63°19' E 009°51'0 0.0
2017-Nov-14 20:55N 63°19' E 009°51'0 0.0
2017-Nov-14 20:28N 63°19' E 009°51'0 0.0
2017-Nov-14 19:55N 63°19' E 009°51'0 0.0
2017-Nov-14 19:28N 63°19' E 009°51'0 0.0
2017-Nov-14 18:55N 63°19' E 009°51'0 0.0
2017-Nov-14 18:25N 63°19' E 009°51'0 0.8
2017-Nov-14 18:00N 63°19' E 009°51'2 4.8
2017-Nov-14 17:30N 63°21' E 009°55'5 9.4
2017-Nov-14 17:00N 63°25' E 010°00'510.9
2017-Nov-14 16:30N 63°30' E 009°55'612.2
2017-Nov-14 16:00N 63°35' E 009°49'5 9.8
2017-Nov-14 15:30N 63°39' E 009°42'612.2
2017-Nov-14 15:00N 63°36' E 009°30'612.8
2017-Nov-14 14:29N 63°33' E 009°17'713.7
2017-Nov-14 14:00N 63°30' E 009°04'713.0
2017-Nov-14 13:30N 63°27' E 008°51'713.1
2017-Nov-14 12:59N 63°25' E 008°37'713.2
2017-Nov-14 12:30N 63°22' E 008°23'713.9
2017-Nov-14 12:00N 63°17' E 008°12'713.5
2017-Nov-14 11:30N 63°14' E 007°59'611.4
2017-Nov-14 10:59N 63°14' E 007°46'3 5.4
2017-Nov-14 10:30N 63°14' E 007°41'3 5.2
2017-Nov-14 10:00N 63°16' E 007°36'510.4
2017-Nov-14 09:30N 63°15' E 007°25'612.9
2017-Nov-14 09:00N 63°13' E 007°11'612.9
2017-Nov-14 08:30N 63°11' E 006°58'612.3
2017-Nov-14 08:00N 63°08' E 006°45'612.4
2017-Nov-14 07:30N 63°06' E 006°33'612.5
2017-Nov-14 06:59N 63°04' E 006°20'2412.2
2017-Nov-14 04:59N 62°49' E 005°36'612.1
2017-Nov-14 04:30N 62°45' E 005°27'612.0
2017-Nov-14 04:00N 62°41' E 005°18'52 8.2
2017-Nov-13 21:40N 61°55' E 004°25'26 1.3
2017-Nov-13 01:58N 61°37' E 005°04'0 0.0
2017-Nov-13 01:28N 61°37' E 005°04'0 0.0
2017-Nov-13 00:58N 61°37' E 005°04'0 0.0
2017-Nov-13 00:28N 61°37' E 005°04'0 0.0
2017-Nov-12 23:58N 61°37' E 005°04'0 0.0
2017-Nov-12 23:28N 61°37' E 005°04'0 0.0
2017-Nov-12 22:58N 61°37' E 005°04'0 0.0
2017-Nov-12 22:28N 61°37' E 005°04'0 0.0
2017-Nov-12 21:58N 61°37' E 005°04'0 0.0
2017-Nov-12 21:28N 61°37' E 005°04'0 0.0
2017-Nov-12 20:58N 61°37' E 005°04'0 0.0
2017-Nov-12 20:28N 61°37' E 005°04'0 0.0
2017-Nov-12 19:58N 61°37' E 005°04'0 0.0
2017-Nov-12 19:28N 61°37' E 005°04'0 0.0
2017-Nov-12 18:58N 61°37' E 005°04'0 0.0
2017-Nov-12 18:28N 61°37' E 005°04'0 0.0
2017-Nov-12 17:58N 61°37' E 005°04'0 0.0
2017-Nov-12 17:28N 61°37' E 005°04'0 0.0
2017-Nov-12 16:58N 61°37' E 005°04'0 0.0
2017-Nov-12 16:25N 61°37' E 005°04'0 0.0
2017-Nov-12 15:58N 61°37' E 005°04'0 0.0
2017-Nov-12 15:28N 61°37' E 005°04'0 0.0
2017-Nov-12 14:58N 61°37' E 005°04'0 0.0
2017-Nov-12 14:28N 61°37' E 005°04'0 0.0
2017-Nov-12 13:58N 61°37' E 005°04'0 0.0
2017-Nov-12 13:28N 61°37' E 005°04'0 0.0
2017-Nov-12 12:58N 61°37' E 005°04'0 0.0
2017-Nov-12 12:28N 61°37' E 005°04'0 0.0
2017-Nov-12 11:58N 61°37' E 005°04'0 0.0
2017-Nov-12 11:28N 61°37' E 005°04'0 0.0
2017-Nov-12 10:58N 61°37' E 005°04'0 0.0
2017-Nov-12 10:28N 61°37' E 005°04'0 0.0
2017-Nov-12 09:58N 61°37' E 005°04'0 0.0
2017-Nov-12 09:28N 61°37' E 005°04'0 0.0
2017-Nov-12 08:58N 61°37' E 005°04'0 0.0
2017-Nov-12 08:28N 61°37' E 005°04'0 0.0
2017-Nov-12 07:58N 61°37' E 005°04'0 0.0
2017-Nov-12 07:28N 61°37' E 005°04'0 0.0
2017-Nov-12 06:55N 61°37' E 005°04'0 0.0
2017-Nov-12 06:28N 61°37' E 005°04'0 0.0
2017-Nov-12 05:58N 61°37' E 005°04'0 0.0
2017-Nov-12 05:22N 61°37' E 005°04'0 0.0
2017-Nov-12 04:58N 61°37' E 005°04'0 0.0
2017-Nov-12 04:28N 61°37' E 005°04'0 0.0
2017-Nov-12 03:58N 61°37' E 005°04'0 0.0
2017-Nov-12 03:28N 61°37' E 005°04'0 0.0
2017-Nov-12 02:58N 61°37' E 005°04'0 0.0
2017-Nov-12 02:28N 61°37' E 005°04'0 0.0
2017-Nov-12 01:58N 61°37' E 005°04'0 0.0
2017-Nov-12 01:28N 61°37' E 005°04'0 0.0
2017-Nov-12 00:55N 61°37' E 005°04'0 0.0
2017-Nov-12 00:28N 61°37' E 005°04'0 0.0
2017-Nov-11 23:58N 61°37' E 005°04'0 0.0
2017-Nov-11 23:28N 61°37' E 005°04'0 0.0
2017-Nov-11 22:58N 61°37' E 005°04'0 0.0
2017-Nov-11 22:28N 61°37' E 005°04'0 0.0
2017-Nov-11 21:58N 61°37' E 005°04'0 0.0
2017-Nov-11 21:28N 61°37' E 005°04'0 0.0
2017-Nov-11 20:58N 61°37' E 005°04'0 0.0
2017-Nov-11 20:28N 61°37' E 005°04'0 0.0
2017-Nov-11 19:58N 61°37' E 005°04'0 0.0
2017-Nov-11 19:28N 61°37' E 005°04'0 0.0
2017-Nov-11 18:55N 61°37' E 005°04'0 0.0
2017-Nov-11 18:28N 61°37' E 005°04'0 0.0
2017-Nov-11 17:58N 61°37' E 005°04'0 0.0
2017-Nov-11 17:28N 61°37' E 005°04'0 0.0
2017-Nov-11 16:58N 61°37' E 005°04'0 0.0
2017-Nov-11 16:28N 61°37' E 005°04'0 0.0
2017-Nov-11 15:58N 61°37' E 005°04'0 0.0
2017-Nov-11 15:28N 61°37' E 005°04'0 0.0
2017-Nov-11 14:58N 61°37' E 005°04'0 0.0
2017-Nov-11 14:28N 61°37' E 005°04'0 0.0
2017-Nov-11 13:55N 61°37' E 005°04'0 0.0
2017-Nov-11 13:28N 61°37' E 005°04'0 0.0
2017-Nov-11 12:58N 61°37' E 005°04'0 0.0
2017-Nov-11 12:28N 61°37' E 005°04'0 0.0
2017-Nov-11 11:58N 61°37' E 005°04'0 0.0
2017-Nov-11 11:28N 61°37' E 005°04'0 0.0
2017-Nov-11 10:58N 61°37' E 005°04'0 0.0
2017-Nov-11 10:28N 61°37' E 005°04'0 0.0
2017-Nov-11 09:58N 61°37' E 005°04'0 0.0
2017-Nov-11 09:28N 61°37' E 005°04'0 0.0
2017-Nov-11 08:58N 61°37' E 005°04'0 0.0
2017-Nov-11 08:28N 61°37' E 005°04'0 0.0
2017-Nov-11 07:58N 61°37' E 005°04'0 0.0
2017-Nov-11 07:28N 61°37' E 005°04'0 0.0
2017-Nov-11 06:58N 61°37' E 005°04'0 0.0
2017-Nov-11 06:28N 61°37' E 005°04'0 0.0
2017-Nov-11 05:58N 61°37' E 005°04'0 0.0
2017-Nov-11 05:28N 61°37' E 005°04'0 0.0
2017-Nov-11 04:58N 61°37' E 005°04'0 0.0
2017-Nov-11 04:28N 61°37' E 005°04'0 0.0
2017-Nov-11 03:58N 61°37' E 005°04'0 0.0
2017-Nov-11 03:28N 61°37' E 005°04'0 0.0
2017-Nov-11 02:58N 61°37' E 005°04'0 0.0
2017-Nov-11 02:28N 61°37' E 005°04'0 0.0
2017-Nov-11 01:58N 61°37' E 005°04'0 0.0
2017-Nov-11 01:28N 61°37' E 005°04'0 0.0
2017-Nov-11 00:58N 61°37' E 005°04'0 0.0
2017-Nov-11 00:28N 61°37' E 005°04'0 0.0
2017-Nov-10 23:58N 61°37' E 005°04'0 0.0
2017-Nov-10 23:28N 61°37' E 005°04'0 0.0
2017-Nov-10 22:58N 61°37' E 005°04'0 0.0
2017-Nov-10 22:28N 61°37' E 005°04'0 0.0
2017-Nov-10 21:58N 61°37' E 005°04'0 0.0
2017-Nov-10 21:28N 61°37' E 005°04'0 0.0
2017-Nov-10 20:58N 61°37' E 005°04'0 0.0
2017-Nov-10 20:28N 61°37' E 005°04'0 0.0
2017-Nov-10 19:58N 61°37' E 005°04'0 0.0
2017-Nov-10 19:28N 61°37' E 005°04'0 0.0
2017-Nov-10 18:58N 61°37' E 005°04'0 0.0
2017-Nov-10 18:25N 61°37' E 005°04'0 0.0
2017-Nov-10 17:58N 61°37' E 005°04'0 0.0
2017-Nov-10 17:28N 61°37' E 005°04'0 0.0
2017-Nov-10 16:58N 61°37' E 005°04'0 0.0
2017-Nov-10 16:28N 61°37' E 005°04'0 0.0
2017-Nov-10 15:58N 61°37' E 005°04'0 0.0
2017-Nov-10 15:28N 61°37' E 005°04'0 0.0
2017-Nov-10 14:58N 61°37' E 005°04'0 0.0
2017-Nov-10 14:28N 61°37' E 005°04'0 0.0
2017-Nov-10 13:58N 61°37' E 005°04'0 0.0
2017-Nov-10 13:28N 61°37' E 005°04'0 0.0
2017-Nov-10 12:58N 61°37' E 005°04'0 0.0
2017-Nov-10 12:28N 61°37' E 005°04'0 0.0
2017-Nov-10 11:55N 61°37' E 005°04'0 0.0
2017-Nov-10 11:28N 61°37' E 005°04'0 0.0
2017-Nov-10 10:58N 61°37' E 005°04'0 0.0
2017-Nov-10 10:28N 61°37' E 005°04'0 0.0
2017-Nov-10 09:58N 61°37' E 005°04'0 0.0
2017-Nov-10 09:28N 61°37' E 005°04'0 0.0
2017-Nov-10 08:58N 61°37' E 005°04'0 0.0
2017-Nov-10 08:28N 61°37' E 005°04'0 0.0
2017-Nov-10 07:58N 61°37' E 005°04'0 0.0
2017-Nov-10 07:25N 61°37' E 005°04'0 0.0
2017-Nov-10 06:58N 61°37' E 005°04'0 0.0
2017-Nov-10 06:28N 61°37' E 005°04'0 0.0
2017-Nov-10 05:58N 61°37' E 005°04'0 0.0
2017-Nov-10 05:28N 61°37' E 005°04'0 0.0
2017-Nov-10 04:58N 61°37' E 005°04'0 0.0
2017-Nov-10 04:28N 61°37' E 005°04'0 0.0
2017-Nov-10 03:58N 61°37' E 005°04'0 0.0
2017-Nov-10 03:28N 61°37' E 005°04'0 0.0
2017-Nov-10 02:58N 61°37' E 005°04'0 0.0
2017-Nov-10 02:28N 61°37' E 005°04'0 0.0
2017-Nov-10 01:58N 61°37' E 005°04'0 0.0
2017-Nov-10 01:28N 61°37' E 005°04'0 0.0
2017-Nov-10 00:58N 61°37' E 005°04'0 0.0
2017-Nov-10 00:28N 61°37' E 005°04'  
Track history (hours):
 
Tides and Currents Weather Stations Pressure Air Temp Water Temp Dewpoint Dewpoint Depression Visibility Wind Speed Wind Dir Waves Ship Positions

African Piper

Last reported at 2017-Nov-19 23:58 UTC. Time now 2017-Nov-21 13:39 UTC.
Position N 57°42' E 007°36'.

Length 180 m; draft 6.1 m.

Type: Cargo ship. MMSI: 311000316.

Date/timePositionNaut miles runAvg speedWind from/ knotsBaromVisibWave heightAir tempDewpointWater temp
2017-Nov-19 23:58N 57°42' E 007°36'613.6
2017-Nov-19 23:29N 57°42' E 007°24'611.7
2017-Nov-19 23:00N 57°42' E 007°14'2 3.3
2017-Nov-19 22:30N 57°42' E 007°10'5 9.4
2017-Nov-19 21:59N 57°42' E 007°01'613.1
2017-Nov-19 21:30N 57°43' E 006°49'613.1
2017-Nov-19 21:00N 57°44' E 006°38'712.8
2017-Nov-19 20:30N 57°47' E 006°27'713.6
2017-Nov-19 19:59N 57°51' E 006°17'713.5
2017-Nov-19 19:30N 57°56' E 006°07'713.5
2017-Nov-19 19:00N 57°60' E 005°58'713.6
2017-Nov-19 18:30N 58°04' E 005°48'1813.2
2017-Nov-19 17:08N 58°16' E 005°22'313.2
2017-Nov-19 16:53N 58°18' E 005°18'813.5
2017-Nov-19 16:19N 58°24' E 005°08'413.6
2017-Nov-19 16:00N 58°27' E 005°02'713.7
2017-Nov-19 15:29N 58°32' E 004°53'713.7
2017-Nov-19 14:59N 58°37' E 004°43'714.1
2017-Nov-19 14:29N 58°42' E 004°34'20612.5
2017-Nov-18 21:55N 62°09' E 004°28'410.6
2017-Nov-18 21:30N 62°11' E 004°35'510.3
2017-Nov-18 21:00N 62°15' E 004°44'510.4
2017-Nov-18 20:30N 62°18' E 004°52'510.6
2017-Nov-18 20:00N 62°23' E 004°59'510.4
2017-Nov-18 19:30N 62°27' E 005°06'510.5
2017-Nov-18 19:00N 62°31' E 005°13'510.4
2017-Nov-18 18:30N 62°35' E 005°19'510.5
2017-Nov-18 18:00N 62°39' E 005°26'510.6
2017-Nov-18 17:30N 62°43' E 005°33'510.2
2017-Nov-18 17:00N 62°48' E 005°39'3 6.8
2017-Nov-18 16:30N 62°50' E 005°44'2 3.8
2017-Nov-18 16:00N 62°52' E 005°46'2 3.7
2017-Nov-18 15:30N 62°53' E 005°48'54 5.6
2017-Nov-18 05:52N 63°32' E 007°13'1 2.2
2017-Nov-18 05:30N 63°32' E 007°14'1 2.7
2017-Nov-18 04:59N 63°31' E 007°16'1 2.5
2017-Nov-18 04:30N 63°31' E 007°19'1 1.6
2017-Nov-18 04:00N 63°30' E 007°20'1 2.0
2017-Nov-18 03:30N 63°29' E 007°20'0 0.9
2017-Nov-18 02:59N 63°29' E 007°21'0 0.8
2017-Nov-18 02:30N 63°28' E 007°21'0 0.4
2017-Nov-18 02:00N 63°28' E 007°21'0 0.4
2017-Nov-18 01:30N 63°28' E 007°20'0 0.2
2017-Nov-18 01:00N 63°28' E 007°20'0 1.0
2017-Nov-18 00:30N 63°28' E 007°20'0 1.0
2017-Nov-18 00:00N 63°29' E 007°20'0 1.0
2017-Nov-17 23:30N 63°29' E 007°19'1 1.1
2017-Nov-17 23:00N 63°29' E 007°18'1 2.6
2017-Nov-17 22:30N 63°28' E 007°17'1 2.7
2017-Nov-17 22:00N 63°27' E 007°17'1 2.8
2017-Nov-17 21:30N 63°26' E 007°16'1 2.8
2017-Nov-17 21:00N 63°24' E 007°16'1 2.8
2017-Nov-17 20:30N 63°23' E 007°15'1 1.5
2017-Nov-17 20:00N 63°22' E 007°14'1 1.7
2017-Nov-17 19:30N 63°22' E 007°12'1 2.1
2017-Nov-17 19:00N 63°21' E 007°11'2 3.3
2017-Nov-17 18:30N 63°19' E 007°10'3 5.8
2017-Nov-17 18:00N 63°16' E 007°09'4 7.1
2017-Nov-17 17:30N 63°13' E 007°09'1 2.6
2017-Nov-17 17:00N 63°12' E 007°07'0 0.6
2017-Nov-17 16:29N 63°12' E 007°07'1 1.3
2017-Nov-17 16:00N 63°12' E 007°05'0 0.4
2017-Nov-17 15:30N 63°12' E 007°05'0 0.7
2017-Nov-17 15:00N 63°12' E 007°06'0 0.9
2017-Nov-17 14:30N 63°12' E 007°07'0 0.6
2017-Nov-17 14:00N 63°12' E 007°08'0 0.6
2017-Nov-17 13:30N 63°12' E 007°08'0 0.4
2017-Nov-17 13:00N 63°12' E 007°08'0 0.8
2017-Nov-17 12:30N 63°11' E 007°08'1 2.2
2017-Nov-17 12:00N 63°10' E 007°08'0 0.4
2017-Nov-17 11:30N 63°10' E 007°08'0 0.9
2017-Nov-17 11:00N 63°10' E 007°09'1 1.7
2017-Nov-17 10:30N 63°11' E 007°11'1 1.7
2017-Nov-17 10:00N 63°11' E 007°12'1 1.9
2017-Nov-17 09:30N 63°12' E 007°14'1 2.4
2017-Nov-17 09:00N 63°12' E 007°17'1 2.6
2017-Nov-17 08:30N 63°12' E 007°20'1 2.9
2017-Nov-17 08:00N 63°13' E 007°23'1 2.6
2017-Nov-17 07:30N 63°13' E 007°25'1 2.9
2017-Nov-17 07:00N 63°14' E 007°27'1 2.9
2017-Nov-17 06:30N 63°15' E 007°30'1 2.9
2017-Nov-17 06:00N 63°15' E 007°33'1 1.4
2017-Nov-17 05:30N 63°16' E 007°35'0 0.6
2017-Nov-17 05:00N 63°16' E 007°35'2 3.5
2017-Nov-17 04:30N 63°15' E 007°39'4 8.2
2017-Nov-17 04:00N 63°13' E 007°46'4 8.8
2017-Nov-17 03:30N 63°13' E 007°56'5 9.5
2017-Nov-17 03:00N 63°16' E 008°05'5 9.3
2017-Nov-17 02:30N 63°18' E 008°14'4 9.2
2017-Nov-17 02:00N 63°21' E 008°21'5 9.3
2017-Nov-17 01:30N 63°24' E 008°30'5 9.1
2017-Nov-17 01:00N 63°26' E 008°39'5 9.1
2017-Nov-17 00:30N 63°27' E 008°49'510.2
2017-Nov-17 00:00N 63°29' E 008°60'510.6
2017-Nov-16 23:30N 63°31' E 009°10'510.4
2017-Nov-16 23:00N 63°34' E 009°21'510.7
2017-Nov-16 22:29N 63°37' E 009°31'511.2
2017-Nov-16 22:00N 63°39' E 009°42'5 9.5
2017-Nov-16 21:30N 63°36' E 009°49'612.8
2017-Nov-16 21:00N 63°30' E 009°55'611.2
2017-Nov-16 20:30N 63°25' E 009°60'611.4
2017-Nov-16 20:00N 63°20' E 009°53'1 2.4
2017-Nov-16 19:30N 63°19' E 009°51'0 0.0
2017-Nov-16 19:00N 63°19' E 009°51'0 0.0
2017-Nov-16 18:28N 63°19' E 009°51'0 0.0
2017-Nov-16 17:58N 63°19' E 009°51'0 0.0
2017-Nov-16 17:28N 63°19' E 009°51'0 0.0
2017-Nov-16 16:58N 63°19' E 009°51'0 0.0
2017-Nov-16 16:28N 63°19' E 009°51'0 0.0
2017-Nov-16 15:58N 63°19' E 009°51'0 0.0
2017-Nov-16 15:28N 63°19' E 009°51'0 0.0
2017-Nov-16 14:58N 63°19' E 009°51'0 0.0
2017-Nov-16 14:28N 63°19' E 009°51'0 0.0
2017-Nov-16 13:58N 63°19' E 009°51'0 0.0
2017-Nov-16 13:28N 63°19' E 009°51'0 0.0
2017-Nov-16 12:58N 63°19' E 009°51'0 0.0
2017-Nov-16 12:28N 63°19' E 009°51'0 0.0
2017-Nov-16 11:58N 63°19' E 009°51'0 0.0
2017-Nov-16 11:28N 63°19' E 009°51'0 0.0
2017-Nov-16 10:58N 63°19' E 009°51'0 0.0
2017-Nov-16 10:28N 63°19' E 009°51'0 0.0
2017-Nov-16 09:58N 63°19' E 009°51'0 0.0
2017-Nov-16 09:28N 63°19' E 009°51'0 0.0
2017-Nov-16 08:58N 63°19' E 009°51'0 0.0
2017-Nov-16 08:28N 63°19' E 009°51'0 0.0
2017-Nov-16 07:58N 63°19' E 009°51'0 0.0
2017-Nov-16 07:28N 63°19' E 009°51'0 0.0
2017-Nov-16 06:58N 63°19' E 009°51'0 0.0
2017-Nov-16 06:28N 63°19' E 009°51'0 0.0
2017-Nov-16 05:58N 63°19' E 009°51'0 0.0
2017-Nov-16 05:28N 63°19' E 009°51'0 0.0
2017-Nov-16 04:58N 63°19' E 009°51'0 0.0
2017-Nov-16 04:28N 63°19' E 009°51'0 0.0
2017-Nov-16 03:58N 63°19' E 009°51'0 0.0
2017-Nov-16 03:28N 63°19' E 009°51'0 0.0
2017-Nov-16 02:58N 63°19' E 009°51'0 0.0
2017-Nov-16 02:28N 63°19' E 009°51'0 0.0
2017-Nov-16 01:58N 63°19' E 009°51'0 0.0
2017-Nov-16 01:28N 63°19' E 009°51'0 0.0
2017-Nov-16 00:58N 63°19' E 009°51'0 0.0
2017-Nov-16 00:28N 63°19' E 009°51'0 0.0
2017-Nov-15 23:58N 63°19' E 009°51'0 0.0
2017-Nov-15 23:28N 63°19' E 009°51'0 0.0
2017-Nov-15 22:58N 63°19' E 009°51'0 0.0
2017-Nov-15 22:28N 63°19' E 009°51'0 0.0
2017-Nov-15 21:58N 63°19' E 009°51'0 0.0
2017-Nov-15 21:28N 63°19' E 009°51'0 0.0
2017-Nov-15 20:58N 63°19' E 009°51'0 0.0
2017-Nov-15 20:28N 63°19' E 009°51'0 0.0
2017-Nov-15 19:58N 63°19' E 009°51'0 0.0
2017-Nov-15 19:28N 63°19' E 009°51'0 0.0
2017-Nov-15 18:58N 63°19' E 009°51'0 0.0
2017-Nov-15 18:28N 63°19' E 009°51'0 0.0
2017-Nov-15 17:58N 63°19' E 009°51'0 0.0
2017-Nov-15 17:28N 63°19' E 009°51'0 0.0
2017-Nov-15 16:58N 63°19' E 009°51'0 0.0
2017-Nov-15 16:28N 63°19' E 009°51'0 0.0
2017-Nov-15 15:58N 63°19' E 009°51'0 0.0
2017-Nov-15 15:28N 63°19' E 009°51'0 0.0
2017-Nov-15 14:58N 63°19' E 009°51'0 0.0
2017-Nov-15 14:28N 63°19' E 009°51'0 0.0
2017-Nov-15 13:58N 63°19' E 009°51'0 0.0
2017-Nov-15 13:28N 63°19' E 009°51'0 0.0
2017-Nov-15 12:58N 63°19' E 009°51'0 0.0
2017-Nov-15 12:28N 63°19' E 009°51'0 0.0
2017-Nov-15 11:58N 63°19' E 009°51'0 0.0
2017-Nov-15 11:28N 63°19' E 009°51'0 0.0
2017-Nov-15 10:58N 63°19' E 009°51'0 0.0
2017-Nov-15 10:28N 63°19' E 009°51'0 0.0
2017-Nov-15 09:58N 63°19' E 009°51'0 0.0
2017-Nov-15 09:28N 63°19' E 009°51'0 0.0
2017-Nov-15 08:58N 63°19' E 009°51'0 0.0
2017-Nov-15 08:28N 63°19' E 009°51'0 0.0
2017-Nov-15 07:58N 63°19' E 009°51'0 0.0
2017-Nov-15 07:28N 63°19' E 009°51'0 0.0
2017-Nov-15 06:58N 63°19' E 009°51'0 0.0
2017-Nov-15 06:28N 63°19' E 009°51'0 0.0
2017-Nov-15 05:58N 63°19' E 009°51'0 0.0
2017-Nov-15 05:28N 63°19' E 009°51'0 0.0
2017-Nov-15 04:58N 63°19' E 009°51'0 0.0
2017-Nov-15 04:28N 63°19' E 009°51'0 0.0
2017-Nov-15 03:58N 63°19' E 009°51'0 0.0
2017-Nov-15 03:28N 63°19' E 009°51'0 0.0
2017-Nov-15 02:58N 63°19' E 009°51'0 0.0
2017-Nov-15 02:28N 63°19' E 009°51'0 0.0
2017-Nov-15 01:58N 63°19' E 009°51'0 0.0
2017-Nov-15 01:28N 63°19' E 009°51'0 0.0
2017-Nov-15 00:58N 63°19' E 009°51'0 0.0
2017-Nov-15 00:28N 63°19' E 009°51'0 0.0
2017-Nov-14 23:58N 63°19' E 009°51'0 0.0
2017-Nov-14 23:28N 63°19' E 009°51'0 0.0
2017-Nov-14 22:58N 63°19' E 009°51'0 0.0
2017-Nov-14 22:28N 63°19' E 009°51'0 0.0
2017-Nov-14 21:58N 63°19' E 009°51'0 0.0
2017-Nov-14 21:28N 63°19' E 009°51'0 0.0
2017-Nov-14 20:55N 63°19' E 009°51'0 0.0
2017-Nov-14 20:28N 63°19' E 009°51'0 0.0
2017-Nov-14 19:55N 63°19' E 009°51'0 0.0
2017-Nov-14 19:28N 63°19' E 009°51'0 0.0
2017-Nov-14 18:55N 63°19' E 009°51'0 0.0
2017-Nov-14 18:25N 63°19' E 009°51'0 0.8
2017-Nov-14 18:00N 63°19' E 009°51'2 4.8
2017-Nov-14 17:30N 63°21' E 009°55'5 9.4
2017-Nov-14 17:00N 63°25' E 010°00'510.9
2017-Nov-14 16:30N 63°30' E 009°55'612.2
2017-Nov-14 16:00N 63°35' E 009°49'5 9.8
2017-Nov-14 15:30N 63°39' E 009°42'612.2
2017-Nov-14 15:00N 63°36' E 009°30'612.8
2017-Nov-14 14:29N 63°33' E 009°17'713.7
2017-Nov-14 14:00N 63°30' E 009°04'713.0
2017-Nov-14 13:30N 63°27' E 008°51'713.1
2017-Nov-14 12:59N 63°25' E 008°37'713.2
2017-Nov-14 12:30N 63°22' E 008°23'713.9
2017-Nov-14 12:00N 63°17' E 008°12'713.5
2017-Nov-14 11:30N 63°14' E 007°59'611.4
2017-Nov-14 10:59N 63°14' E 007°46'3 5.4
2017-Nov-14 10:30N 63°14' E 007°41'3 5.2
2017-Nov-14 10:00N 63°16' E 007°36'510.4
2017-Nov-14 09:30N 63°15' E 007°25'612.9
2017-Nov-14 09:00N 63°13' E 007°11'612.9
2017-Nov-14 08:30N 63°11' E 006°58'612.3
2017-Nov-14 08:00N 63°08' E 006°45'612.4
2017-Nov-14 07:30N 63°06' E 006°33'612.5
2017-Nov-14 06:59N 63°04' E 006°20'2412.2
2017-Nov-14 04:59N 62°49' E 005°36'612.1
2017-Nov-14 04:30N 62°45' E 005°27'612.0
2017-Nov-14 04:00N 62°41' E 005°18'52 8.2
2017-Nov-13 21:40N 61°55' E 004°25'26 1.3
2017-Nov-13 01:58N 61°37' E 005°04'0 0.0
2017-Nov-13 01:28N 61°37' E 005°04'0 0.0
2017-Nov-13 00:58N 61°37' E 005°04'0 0.0
2017-Nov-13 00:28N 61°37' E 005°04'0 0.0
2017-Nov-12 23:58N 61°37' E 005°04'0 0.0
2017-Nov-12 23:28N 61°37' E 005°04'0 0.0
2017-Nov-12 22:58N 61°37' E 005°04'0 0.0
2017-Nov-12 22:28N 61°37' E 005°04'0 0.0
2017-Nov-12 21:58N 61°37' E 005°04'0 0.0
2017-Nov-12 21:28N 61°37' E 005°04'0 0.0
2017-Nov-12 20:58N 61°37' E 005°04'0 0.0
2017-Nov-12 20:28N 61°37' E 005°04'0 0.0
2017-Nov-12 19:58N 61°37' E 005°04'0 0.0
2017-Nov-12 19:28N 61°37' E 005°04'0 0.0
2017-Nov-12 18:58N 61°37' E 005°04'0 0.0
2017-Nov-12 18:28N 61°37' E 005°04'0 0.0
2017-Nov-12 17:58N 61°37' E 005°04'0 0.0
2017-Nov-12 17:28N 61°37' E 005°04'0 0.0
2017-Nov-12 16:58N 61°37' E 005°04'0 0.0
2017-Nov-12 16:25N 61°37' E 005°04'0 0.0
2017-Nov-12 15:58N 61°37' E 005°04'0 0.0
2017-Nov-12 15:28N 61°37' E 005°04'0 0.0
2017-Nov-12 14:58N 61°37' E 005°04'0 0.0
2017-Nov-12 14:28N 61°37' E 005°04'0 0.0
2017-Nov-12 13:58N 61°37' E 005°04'0 0.0
2017-Nov-12 13:28N 61°37' E 005°04'0 0.0
2017-Nov-12 12:58N 61°37' E 005°04'0 0.0
2017-Nov-12 12:28N 61°37' E 005°04'0 0.0
2017-Nov-12 11:58N 61°37' E 005°04'0 0.0
2017-Nov-12 11:28N 61°37' E 005°04'0 0.0
2017-Nov-12 10:58N 61°37' E 005°04'0 0.0
2017-Nov-12 10:28N 61°37' E 005°04'0 0.0
2017-Nov-12 09:58N 61°37' E 005°04'0 0.0
2017-Nov-12 09:28N 61°37' E 005°04'0 0.0
2017-Nov-12 08:58N 61°37' E 005°04'0 0.0
2017-Nov-12 08:28N 61°37' E 005°04'0 0.0
2017-Nov-12 07:58N 61°37' E 005°04'0 0.0
2017-Nov-12 07:28N 61°37' E 005°04'0 0.0
2017-Nov-12 06:55N 61°37' E 005°04'0 0.0
2017-Nov-12 06:28N 61°37' E 005°04'0 0.0
2017-Nov-12 05:58N 61°37' E 005°04'0 0.0
2017-Nov-12 05:22N 61°37' E 005°04'0 0.0
2017-Nov-12 04:58N 61°37' E 005°04'0 0.0
2017-Nov-12 04:28N 61°37' E 005°04'0 0.0
2017-Nov-12 03:58N 61°37' E 005°04'0 0.0
2017-Nov-12 03:28N 61°37' E 005°04'0 0.0
2017-Nov-12 02:58N 61°37' E 005°04'0 0.0
2017-Nov-12 02:28N 61°37' E 005°04'0 0.0
2017-Nov-12 01:58N 61°37' E 005°04'0 0.0
2017-Nov-12 01:28N 61°37' E 005°04'0 0.0
2017-Nov-12 00:55N 61°37' E 005°04'0 0.0
2017-Nov-12 00:28N 61°37' E 005°04'0 0.0
2017-Nov-11 23:58N 61°37' E 005°04'0 0.0
2017-Nov-11 23:28N 61°37' E 005°04'0 0.0
2017-Nov-11 22:58N 61°37' E 005°04'0 0.0
2017-Nov-11 22:28N 61°37' E 005°04'0 0.0
2017-Nov-11 21:58N 61°37' E 005°04'0 0.0
2017-Nov-11 21:28N 61°37' E 005°04'0 0.0
2017-Nov-11 20:58N 61°37' E 005°04'0 0.0
2017-Nov-11 20:28N 61°37' E 005°04'0 0.0
2017-Nov-11 19:58N 61°37' E 005°04'0 0.0
2017-Nov-11 19:28N 61°37' E 005°04'0 0.0
2017-Nov-11 18:55N 61°37' E 005°04'0 0.0
2017-Nov-11 18:28N 61°37' E 005°04'0 0.0
2017-Nov-11 17:58N 61°37' E 005°04'0 0.0
2017-Nov-11 17:28N 61°37' E 005°04'0 0.0
2017-Nov-11 16:58N 61°37' E 005°04'0 0.0
2017-Nov-11 16:28N 61°37' E 005°04'0 0.0
2017-Nov-11 15:58N 61°37' E 005°04'0 0.0
2017-Nov-11 15:28N 61°37' E 005°04'0 0.0
2017-Nov-11 14:58N 61°37' E 005°04'0 0.0
2017-Nov-11 14:28N 61°37' E 005°04'0 0.0
2017-Nov-11 13:55N 61°37' E 005°04'0 0.0
2017-Nov-11 13:28N 61°37' E 005°04'0 0.0
2017-Nov-11 12:58N 61°37' E 005°04'0 0.0
2017-Nov-11 12:28N 61°37' E 005°04'0 0.0
2017-Nov-11 11:58N 61°37' E 005°04'0 0.0
2017-Nov-11 11:28N 61°37' E 005°04'0 0.0
2017-Nov-11 10:58N 61°37' E 005°04'0 0.0
2017-Nov-11 10:28N 61°37' E 005°04'0 0.0
2017-Nov-11 09:58N 61°37' E 005°04'0 0.0
2017-Nov-11 09:28N 61°37' E 005°04'0 0.0
2017-Nov-11 08:58N 61°37' E 005°04'0 0.0
2017-Nov-11 08:28N 61°37' E 005°04'0 0.0
2017-Nov-11 07:58N 61°37' E 005°04'0 0.0
2017-Nov-11 07:28N 61°37' E 005°04'0 0.0
2017-Nov-11 06:58N 61°37' E 005°04'0 0.0
2017-Nov-11 06:28N 61°37' E 005°04'0 0.0
2017-Nov-11 05:58N 61°37' E 005°04'0 0.0
2017-Nov-11 05:28N 61°37' E 005°04'0 0.0
2017-Nov-11 04:58N 61°37' E 005°04'0 0.0
2017-Nov-11 04:28N 61°37' E 005°04'0 0.0
2017-Nov-11 03:58N 61°37' E 005°04'0 0.0
2017-Nov-11 03:28N 61°37' E 005°04'0 0.0
2017-Nov-11 02:58N 61°37' E 005°04'0 0.0
2017-Nov-11 02:28N 61°37' E 005°04'0 0.0
2017-Nov-11 01:58N 61°37' E 005°04'0 0.0
2017-Nov-11 01:28N 61°37' E 005°04'0 0.0
2017-Nov-11 00:58N 61°37' E 005°04'0 0.0
2017-Nov-11 00:28N 61°37' E 005°04'0 0.0
2017-Nov-10 23:58N 61°37' E 005°04'0 0.0
2017-Nov-10 23:28N 61°37' E 005°04'0 0.0
2017-Nov-10 22:58N 61°37' E 005°04'0 0.0
2017-Nov-10 22:28N 61°37' E 005°04'0 0.0
2017-Nov-10 21:58N 61°37' E 005°04'0 0.0
2017-Nov-10 21:28N 61°37' E 005°04'0 0.0
2017-Nov-10 20:58N 61°37' E 005°04'0 0.0
2017-Nov-10 20:28N 61°37' E 005°04'0 0.0
2017-Nov-10 19:58N 61°37' E 005°04'0 0.0
2017-Nov-10 19:28N 61°37' E 005°04'0 0.0
2017-Nov-10 18:58N 61°37' E 005°04'0 0.0
2017-Nov-10 18:25N 61°37' E 005°04'0 0.0
2017-Nov-10 17:58N 61°37' E 005°04'0 0.0
2017-Nov-10 17:28N 61°37' E 005°04'0 0.0
2017-Nov-10 16:58N 61°37' E 005°04'0 0.0
2017-Nov-10 16:28N 61°37' E 005°04'0 0.0
2017-Nov-10 15:58N 61°37' E 005°04'0 0.0
2017-Nov-10 15:28N 61°37' E 005°04'0 0.0
2017-Nov-10 14:58N 61°37' E 005°04'0 0.0
2017-Nov-10 14:28N 61°37' E 005°04'0 0.0
2017-Nov-10 13:58N 61°37' E 005°04'0 0.0
2017-Nov-10 13:28N 61°37' E 005°04'0 0.0
2017-Nov-10 12:58N 61°37' E 005°04'0 0.0
2017-Nov-10 12:28N 61°37' E 005°04'0 0.0
2017-Nov-10 11:55N 61°37' E 005°04'0 0.0
2017-Nov-10 11:28N 61°37' E 005°04'0 0.0
2017-Nov-10 10:58N 61°37' E 005°04'0 0.0
2017-Nov-10 10:28N 61°37' E 005°04'0 0.0
2017-Nov-10 09:58N 61°37' E 005°04'0 0.0
2017-Nov-10 09:28N 61°37' E 005°04'0 0.0
2017-Nov-10 08:58N 61°37' E 005°04'0 0.0
2017-Nov-10 08:28N 61°37' E 005°04'0 0.0
2017-Nov-10 07:58N 61°37' E 005°04'0 0.0
2017-Nov-10 07:25N 61°37' E 005°04'0 0.0
2017-Nov-10 06:58N 61°37' E 005°04'0 0.0
2017-Nov-10 06:28N 61°37' E 005°04'0 0.0
2017-Nov-10 05:58N 61°37' E 005°04'0 0.0
2017-Nov-10 05:28N 61°37' E 005°04'0 0.0
2017-Nov-10 04:58N 61°37' E 005°04'0 0.0
2017-Nov-10 04:28N 61°37' E 005°04'0 0.0
2017-Nov-10 03:58N 61°37' E 005°04'0 0.0
2017-Nov-10 03:28N 61°37' E 005°04'0 0.0
2017-Nov-10 02:58N 61°37' E 005°04'0 0.0
2017-Nov-10 02:28N 61°37' E 005°04'0 0.0
2017-Nov-10 01:58N 61°37' E 005°04'0 0.0
2017-Nov-10 01:28N 61°37' E 005°04'0 0.0
2017-Nov-10 00:58N 61°37' E 005°04'0 0.0
2017-Nov-10 00:28N 61°37' E 005°04'  

Dump ship's entire track history